Time;durP1;ratioP1;P1;durP2;ratioP2;P2;SDS_P1;SDS_P2;PMS_P1;PMS_P2;Temp;Humidity;BMP_temperature;BMP_pressure;BME280_temperature;BME280_humidity;BME280_pressure;Samples;Min_cycle;Max_cycle;Signal;HPM_P1;HPM_P2
2024/01/26 00:00:58;;;;;;;31.13;16.53;;;;;;;;;;5078646;28;20099;-94
2024/01/26 00:03:23;;;;;;;28.83;15.73;;;;;;;;;;5066473;28;20016;-95
2024/01/26 00:05:48;;;;;;;29.40;16.87;;;;;;;;;;5091529;28;20486;-94
2024/01/26 00:08:15;;;;;;;34.87;18.27;;;;;;;;;;5074705;28;20013;-94
2024/01/26 00:10:40;;;;;;;26.35;15.93;;;;;;;;;;5049244;28;20016;-95
2024/01/26 00:13:05;;;;;;;28.93;16.27;;;;;;;;;;5050629;28;20665;-94
2024/01/26 00:15:30;;;;;;;27.33;16.00;;;;;;;;;;5079369;28;20025;-95
2024/01/26 00:17:55;;;;;;;25.77;15.07;;;;;;;;;;5055034;28;20016;-93
2024/01/26 00:20:21;;;;;;;25.97;14.70;;;;;;;;;;5072010;28;20028;-94
2024/01/26 00:22:47;;;;;;;24.03;14.70;;;;;;;;;;5071681;28;20062;-95
2024/01/26 00:25:12;;;;;;;25.02;14.75;;;;;;;;;;5072623;28;20024;-93
2024/01/26 00:27:37;;;;;;;22.93;14.83;;;;;;;;;;5071874;28;20024;-93
2024/01/26 00:30:03;;;;;;;24.30;14.07;;;;;;;;;;5053917;28;20024;-95
2024/01/26 00:32:28;;;;;;;26.30;13.75;;;;;;;;;;5071734;28;20017;-94
2024/01/26 00:34:53;;;;;;;21.53;13.67;;;;;;;;;;5070612;28;20488;-95
2024/01/26 00:37:19;;;;;;;22.50;13.37;;;;;;;;;;5081585;28;20085;-94
2024/01/26 00:39:44;;;;;;;26.33;14.83;;;;;;;;;;5073549;28;20113;-93
2024/01/26 00:42:09;;;;;;;19.80;12.93;;;;;;;;;;5062488;28;20449;-94
2024/01/26 00:44:35;;;;;;;26.83;13.97;;;;;;;;;;5085888;28;20027;-94
2024/01/26 00:47:00;;;;;;;24.65;14.13;;;;;;;;;;5083770;28;20119;-94
2024/01/26 00:49:25;;;;;;;27.13;14.57;;;;;;;;;;5079065;28;20016;-94
2024/01/26 00:51:51;;;;;;;21.87;14.10;;;;;;;;;;5077703;28;20036;-95
2024/01/26 00:54:16;;;;;;;26.83;13.77;;;;;;;;;;5085963;28;20044;-93
2024/01/26 00:56:41;;;;;;;24.63;14.37;;;;;;;;;;5089905;28;20016;-94
2024/01/26 00:59:06;;;;;;;25.93;14.37;;;;;;;;;;5060365;28;20051;-93
2024/01/26 01:01:32;;;;;;;24.73;14.47;;;;;;;;;;5064239;28;20043;-93
2024/01/26 01:03:57;;;;;;;21.30;12.50;;;;;;;;;;5060018;28;20283;-94
2024/01/26 01:06:22;;;;;;;19.20;12.73;;;;;;;;;;5090611;28;20042;-94
2024/01/26 01:08:47;;;;;;;23.00;14.83;;;;;;;;;;5098132;28;20081;-95
2024/01/26 01:11:12;;;;;;;21.60;12.30;;;;;;;;;;5089065;28;20028;-94
2024/01/26 01:13:38;;;;;;;21.77;11.37;;;;;;;;;;5077812;28;20023;-93
2024/01/26 01:16:04;;;;;;;16.52;11.88;;;;;;;;;;5072901;28;20505;-94
2024/01/26 01:18:29;;;;;;;15.17;10.63;;;;;;;;;;5086636;28;20024;-94
2024/01/26 01:20:54;;;;;;;17.43;9.93;;;;;;;;;;5083368;28;20020;-94
2024/01/26 01:23:20;;;;;;;16.47;10.50;;;;;;;;;;5096977;28;20020;-94
2024/01/26 01:25:46;;;;;;;13.63;9.80;;;;;;;;;;5078872;28;20391;-94
2024/01/26 01:28:12;;;;;;;17.30;11.07;;;;;;;;;;5083165;28;20024;-95
2024/01/26 01:30:37;;;;;;;15.27;9.50;;;;;;;;;;5081053;28;20464;-94
2024/01/26 01:33:02;;;;;;;15.50;9.03;;;;;;;;;;5062389;28;20043;-94
2024/01/26 01:35:27;;;;;;;14.13;9.17;;;;;;;;;;5060093;28;20025;-94
2024/01/26 01:37:52;;;;;;;12.87;8.60;;;;;;;;;;5065345;28;20341;-95
2024/01/26 01:40:17;;;;;;;12.40;8.10;;;;;;;;;;5077860;28;20026;-93
2024/01/26 01:42:43;;;;;;;11.80;8.30;;;;;;;;;;5058657;28;20052;-94
2024/01/26 01:45:15;;;;;;;10.73;7.70;;;;;;;;;;5076761;28;20020;-93
2024/01/26 01:47:41;;;;;;;8.95;7.30;;;;;;;;;;5062605;28;20137;-94
2024/01/26 01:50:09;;;;;;;11.10;8.18;;;;;;;;;;5077292;28;20036;-95
2024/01/26 01:52:36;;;;;;;13.32;9.00;;;;;;;;;;5058956;28;20162;-93
2024/01/26 01:55:02;;;;;;;10.98;8.45;;;;;;;;;;5057019;28;20058;-95
2024/01/26 01:57:29;;;;;;;12.63;8.83;;;;;;;;;;5045921;28;20029;-93
2024/01/26 01:59:55;;;;;;;11.10;8.13;;;;;;;;;;5059325;28;20028;-94
2024/01/26 02:02:23;;;;;;;10.87;8.73;;;;;;;;;;5082726;28;20036;-94
2024/01/26 02:04:49;;;;;;;10.10;7.30;;;;;;;;;;5096012;28;20009;-93
2024/01/26 02:07:14;;;;;;;11.53;7.67;;;;;;;;;;5079731;28;20120;-93
2024/01/26 02:09:39;;;;;;;11.30;7.37;;;;;;;;;;5083070;28;20020;-95
2024/01/26 02:12:05;;;;;;;11.80;6.80;;;;;;;;;;5073855;28;20032;-93
2024/01/26 02:14:30;;;;;;;11.40;7.00;;;;;;;;;;5076846;28;20103;-93
2024/01/26 02:16:59;;;;;;;8.53;6.30;;;;;;;;;;5058461;28;20012;-93
2024/01/26 02:19:24;;;;;;;8.53;6.20;;;;;;;;;;5073856;28;20297;-93
2024/01/26 02:21:50;;;;;;;8.98;5.50;;;;;;;;;;5076031;28;20064;-92
2024/01/26 02:24:15;;;;;;;7.13;5.50;;;;;;;;;;5090279;28;21699;-92
2024/01/26 02:26:41;;;;;;;5.63;4.70;;;;;;;;;;5076229;28;20015;-94
2024/01/26 02:29:06;;;;;;;7.15;4.63;;;;;;;;;;5073745;28;20426;-94
2024/01/26 02:31:31;;;;;;;6.40;4.87;;;;;;;;;;5052112;28;20041;-92
2024/01/26 02:33:56;;;;;;;5.03;4.13;;;;;;;;;;5088305;28;20540;-93
2024/01/26 02:36:22;;;;;;;5.60;5.00;;;;;;;;;;5083914;28;20077;-92
2024/01/26 02:38:47;;;;;;;6.53;4.37;;;;;;;;;;5074202;28;20059;-92
2024/01/26 02:41:12;;;;;;;5.73;4.60;;;;;;;;;;5075983;28;20361;-93
2024/01/26 02:43:37;;;;;;;7.57;4.03;;;;;;;;;;5073503;28;20050;-93
2024/01/26 02:46:08;;;;;;;6.77;4.77;;;;;;;;;;5072802;28;20028;-92
2024/01/26 02:48:33;;;;;;;10.32;4.70;;;;;;;;;;5085557;28;20040;-92
2024/01/26 02:50:58;;;;;;;5.93;4.37;;;;;;;;;;5075597;28;20016;-92
2024/01/26 02:53:23;;;;;;;12.20;4.67;;;;;;;;;;5079819;28;20058;-93
2024/01/26 02:55:48;;;;;;;5.57;4.13;;;;;;;;;;5083405;28;20017;-91
2024/01/26 02:58:14;;;;;;;6.83;4.47;;;;;;;;;;5084416;28;20016;-93
2024/01/26 03:00:39;;;;;;;5.93;4.47;;;;;;;;;;5092759;28;20097;-94
2024/01/26 03:03:05;;;;;;;10.03;5.10;;;;;;;;;;5073662;28;20025;-93
2024/01/26 03:05:31;;;;;;;5.53;4.93;;;;;;;;;;5057897;28;20039;-92
2024/01/26 03:07:56;;;;;;;7.43;4.93;;;;;;;;;;5042577;28;20013;-92
2024/01/26 03:10:21;;;;;;;7.80;5.00;;;;;;;;;;5089724;28;20471;-92
2024/01/26 03:12:47;;;;;;;5.90;4.57;;;;;;;;;;5091816;28;20130;-90
2024/01/26 03:15:12;;;;;;;5.68;4.65;;;;;;;;;;5072163;28;20468;-90
2024/01/26 03:17:38;;;;;;;6.30;4.20;;;;;;;;;;5073292;28;20025;-92
2024/01/26 03:20:03;;;;;;;8.73;4.83;;;;;;;;;;5053704;28;20020;-92
2024/01/26 03:22:29;;;;;;;5.00;4.47;;;;;;;;;;5069698;28;20464;-92
2024/01/26 03:24:54;;;;;;;9.20;4.50;;;;;;;;;;5071269;28;20074;-91
2024/01/26 03:27:19;;;;;;;6.03;4.50;;;;;;;;;;5070925;28;20255;-92
2024/01/26 03:29:44;;;;;;;6.40;4.17;;;;;;;;;;5083857;28;20039;-93
2024/01/26 03:32:09;;;;;;;5.30;4.43;;;;;;;;;;5084901;28;20017;-92
2024/01/26 03:34:35;;;;;;;8.00;4.20;;;;;;;;;;5072869;28;20410;-92
2024/01/26 03:37:00;;;;;;;6.70;4.07;;;;;;;;;;5068389;28;20020;-92
2024/01/26 03:39:25;;;;;;;4.67;3.80;;;;;;;;;;5071376;28;20116;-93
2024/01/26 03:41:50;;;;;;;5.13;3.93;;;;;;;;;;5074020;28;20025;-93
2024/01/26 03:44:16;;;;;;;8.90;4.30;;;;;;;;;;5071494;28;20033;-92
2024/01/26 03:46:42;;;;;;;5.83;4.20;;;;;;;;;;5068573;28;20020;-92
2024/01/26 03:49:09;;;;;;;6.80;4.60;;;;;;;;;;5064081;28;20032;-92
2024/01/26 03:51:34;;;;;;;8.05;4.30;;;;;;;;;;5091712;28;20019;-93
2024/01/26 03:53:59;;;;;;;6.20;4.60;;;;;;;;;;5093234;28;20020;-93
2024/01/26 03:56:24;;;;;;;6.43;4.90;;;;;;;;;;5040956;28;20232;-92
2024/01/26 03:58:49;;;;;;;5.30;4.50;;;;;;;;;;5066863;28;20081;-93
2024/01/26 04:01:15;;;;;;;7.30;5.27;;;;;;;;;;5080594;28;20020;-93
2024/01/26 04:03:40;;;;;;;9.43;6.03;;;;;;;;;;5089125;28;20020;-92
2024/01/26 04:06:08;;;;;;;7.03;5.43;;;;;;;;;;5077386;28;20116;-92
2024/01/26 04:08:33;;;;;;;6.38;5.35;;;;;;;;;;5044527;28;20025;-93
2024/01/26 04:10:59;;;;;;;8.77;5.93;;;;;;;;;;5052053;28;20350;-93
2024/01/26 04:13:24;;;;;;;8.50;6.07;;;;;;;;;;5051607;28;20123;-93
2024/01/26 04:15:49;;;;;;;10.33;6.13;;;;;;;;;;5052903;28;20047;-92
2024/01/26 04:18:14;;;;;;;11.67;6.00;;;;;;;;;;5084217;28;20037;-93
2024/01/26 04:20:39;;;;;;;8.43;6.43;;;;;;;;;;5052437;28;20005;-92
2024/01/26 04:23:04;;;;;;;9.53;6.30;;;;;;;;;;5055809;28;20024;-92
2024/01/26 04:25:30;;;;;;;11.10;6.80;;;;;;;;;;5073516;28;20380;-93
2024/01/26 04:27:55;;;;;;;12.03;7.67;;;;;;;;;;5077528;28;20016;-92
2024/01/26 04:30:20;;;;;;;11.47;7.67;;;;;;;;;;5076174;28;20106;-93
2024/01/26 04:32:45;;;;;;;9.27;7.13;;;;;;;;;;5051444;28;20021;-92
2024/01/26 04:35:11;;;;;;;12.00;7.63;;;;;;;;;;5037346;28;20043;-92
2024/01/26 04:37:36;;;;;;;9.45;7.03;;;;;;;;;;5039075;28;20043;-93
2024/01/26 04:40:01;;;;;;;12.63;8.70;;;;;;;;;;5075445;28;20120;-93
2024/01/26 04:42:27;;;;;;;9.10;6.93;;;;;;;;;;5071954;28;20012;-92
2024/01/26 04:44:54;;;;;;;13.77;7.50;;;;;;;;;;5072632;28;20115;-93
2024/01/26 04:47:19;;;;;;;10.57;6.93;;;;;;;;;;5071966;28;20029;-92
2024/01/26 04:49:44;;;;;;;9.33;7.07;;;;;;;;;;5070157;28;20021;-92
2024/01/26 04:52:09;;;;;;;13.07;7.20;;;;;;;;;;5072714;28;20021;-92
2024/01/26 04:54:36;;;;;;;11.13;7.47;;;;;;;;;;5053979;28;20020;-95
2024/01/26 04:57:01;;;;;;;11.97;7.20;;;;;;;;;;5065944;28;20027;-93
2024/01/26 04:59:27;;;;;;;12.43;6.83;;;;;;;;;;5090194;28;20293;-94
2024/01/26 05:01:52;;;;;;;12.83;7.20;;;;;;;;;;5068392;28;20039;-95
2024/01/26 05:04:17;;;;;;;9.93;7.20;;;;;;;;;;5069904;28;20048;-96
2024/01/26 05:06:43;;;;;;;13.97;6.90;;;;;;;;;;5088289;28;20012;-96
2024/01/26 05:09:09;;;;;;;8.30;7.10;;;;;;;;;;5093119;28;20016;-96
2024/01/26 05:11:34;;;;;;;12.33;6.60;;;;;;;;;;5067924;28;20012;-95
2024/01/26 05:13:59;;;;;;;10.23;6.37;;;;;;;;;;5070563;28;20021;-95
2024/01/26 05:16:24;;;;;;;9.13;6.80;;;;;;;;;;5075020;28;20166;-96
2024/01/26 05:18:50;;;;;;;7.90;6.70;;;;;;;;;;5091301;28;20024;-96
2024/01/26 05:21:15;;;;;;;11.27;7.73;;;;;;;;;;5077948;28;20016;-96
2024/01/26 05:23:42;;;;;;;12.97;7.43;;;;;;;;;;5061538;28;20475;-96
2024/01/26 05:26:07;;;;;;;10.73;7.63;;;;;;;;;;5057794;28;20016;-96
2024/01/26 05:28:33;;;;;;;13.67;8.97;;;;;;;;;;5057128;28;20261;-96
2024/01/26 05:30:58;;;;;;;10.73;7.50;;;;;;;;;;5074657;28;20100;-94
2024/01/26 05:33:23;;;;;;;11.33;6.37;;;;;;;;;;5048920;28;20864;-91
2024/01/26 05:35:49;;;;;;;11.83;6.87;;;;;;;;;;5071832;28;20028;-91
2024/01/26 05:38:14;;;;;;;11.00;6.73;;;;;;;;;;5073758;28;20375;-92
2024/01/26 05:40:39;;;;;;;10.47;7.23;;;;;;;;;;5071668;28;20024;-89
2024/01/26 05:43:04;;;;;;;13.17;7.70;;;;;;;;;;5082654;28;20101;-89
2024/01/26 05:45:30;;;;;;;13.67;7.97;;;;;;;;;;5092918;28;20379;-91
2024/01/26 05:47:56;;;;;;;13.47;8.20;;;;;;;;;;5076146;28;20020;-91
2024/01/26 05:50:21;;;;;;;12.45;8.18;;;;;;;;;;5071016;28;20484;-91
2024/01/26 05:52:47;;;;;;;15.27;9.10;;;;;;;;;;5079123;28;20065;-91
2024/01/26 05:55:12;;;;;;;14.53;9.47;;;;;;;;;;5093663;28;20024;-91
2024/01/26 05:57:37;;;;;;;16.60;9.27;;;;;;;;;;5086082;28;20371;-90
2024/01/26 06:00:03;;;;;;;12.35;8.85;;;;;;;;;;5072432;28;20025;-92
2024/01/26 06:02:29;;;;;;;15.50;8.33;;;;;;;;;;5079740;28;20065;-91
2024/01/26 06:04:54;;;;;;;15.50;8.90;;;;;;;;;;5109702;28;20023;-92
2024/01/26 06:07:19;;;;;;;16.07;8.53;;;;;;;;;;5092493;28;20028;-91
2024/01/26 06:09:44;;;;;;;12.53;8.57;;;;;;;;;;5071642;28;20016;-90
2024/01/26 06:12:09;;;;;;;15.93;10.03;;;;;;;;;;5075703;28;20121;-90
2024/01/26 06:14:35;;;;;;;16.67;9.73;;;;;;;;;;5092783;28;20019;-95
2024/01/26 06:17:00;;;;;;;17.92;11.48;;;;;;;;;;5094036;28;20031;-93
2024/01/26 06:19:25;;;;;;;18.90;10.50;;;;;;;;;;5054872;28;20541;-90
2024/01/26 06:21:51;;;;;;;16.30;9.70;;;;;;;;;;5052041;28;20059;-90
2024/01/26 06:24:16;;;;;;;19.07;12.13;;;;;;;;;;5074394;28;20020;-87
2024/01/26 06:26:41;;;;;;;18.40;10.50;;;;;;;;;;5085937;22;20032;-89
2024/01/26 06:29:16;;;;;;;16.27;10.50;;;;;;;;;;5050907;28;20548;-95
2024/01/26 06:31:41;;;;;;;15.77;10.65;;;;;;;;;;5062386;28;20023;-90
2024/01/26 06:34:06;;;;;;;22.80;11.07;;;;;;;;;;5072060;28;20107;-91
2024/01/26 06:36:32;;;;;;;18.80;11.80;;;;;;;;;;5073863;28;20035;-91
2024/01/26 06:38:57;;;;;;;34.73;20.17;;;;;;;;;;5058976;28;20115;-88
2024/01/26 06:41:25;;;;;;;50.93;25.90;;;;;;;;;;5064209;28;20767;-91
2024/01/26 06:43:56;;;;;;;36.83;19.67;;;;;;;;;;5069316;28;20021;-94
2024/01/26 06:46:24;;;;;;;21.20;12.77;;;;;;;;;;5071510;28;20147;-90
2024/01/26 06:48:50;;;;;;;19.02;11.05;;;;;;;;;;5074273;28;20020;-91
2024/01/26 06:51:15;;;;;;;16.08;10.02;;;;;;;;;;5063729;28;20362;-90
2024/01/26 06:53:41;;;;;;;19.53;9.13;;;;;;;;;;5073635;28;20025;-90
2024/01/26 06:56:06;;;;;;;18.27;10.77;;;;;;;;;;5069744;28;20118;-90
2024/01/26 06:58:32;;;;;;;16.67;9.48;;;;;;;;;;5073718;28;20032;-90
2024/01/26 07:00:58;;;;;;;17.13;9.70;;;;;;;;;;5055630;28;20554;-90
2024/01/26 07:03:23;;;;;;;16.60;10.35;;;;;;;;;;5077600;28;20025;-90
2024/01/26 07:05:50;;;;;;;19.00;9.47;;;;;;;;;;5071630;28;20096;-91
2024/01/26 07:08:15;;;;;;;17.13;10.07;;;;;;;;;;5057485;28;20020;-89
2024/01/26 07:10:40;;;;;;;15.50;9.17;;;;;;;;;;5087982;28;20797;-90
2024/01/26 07:13:05;;;;;;;16.97;9.10;;;;;;;;;;5075472;28;20020;-89
2024/01/26 07:15:32;;;;;;;19.23;10.97;;;;;;;;;;5079713;28;20021;-88
2024/01/26 07:17:57;;;;;;;14.02;9.18;;;;;;;;;;5074429;28;20411;-90
2024/01/26 07:20:23;;;;;;;16.27;9.30;;;;;;;;;;5079021;28;20024;-90
2024/01/26 07:22:48;;;;;;;16.67;10.27;;;;;;;;;;5054846;28;20078;-90
2024/01/26 07:25:18;;;;;;;12.63;8.90;;;;;;;;;;5074862;28;20029;-90
2024/01/26 07:27:44;;;;;;;15.75;9.38;;;;;;;;;;5089911;28;20085;-90
2024/01/26 07:30:09;;;;;;;14.67;8.80;;;;;;;;;;5075075;28;20103;-90
2024/01/26 07:32:35;;;;;;;14.48;9.13;;;;;;;;;;5075364;28;20532;-90
2024/01/26 07:35:00;;;;;;;14.40;8.97;;;;;;;;;;5078496;28;20027;-87
2024/01/26 07:37:25;;;;;;;16.10;10.07;;;;;;;;;;5070095;28;20025;-83
2024/01/26 07:39:50;;;;;;;17.93;10.07;;;;;;;;;;5069498;28;20142;-83
2024/01/26 07:42:15;;;;;;;17.27;10.00;;;;;;;;;;5070841;28;20024;-85
2024/01/26 07:44:40;;;;;;;16.93;9.87;;;;;;;;;;5067942;28;20016;-84
2024/01/26 07:47:06;;;;;;;14.50;9.03;;;;;;;;;;5063995;28;20027;-85
2024/01/26 07:49:31;;;;;;;16.57;9.70;;;;;;;;;;5069362;28;20075;-84
2024/01/26 07:51:56;;;;;;;16.47;10.67;;;;;;;;;;5069082;28;20082;-84
2024/01/26 07:54:21;;;;;;;15.33;9.17;;;;;;;;;;5068337;28;20027;-84
2024/01/26 07:56:46;;;;;;;18.57;9.83;;;;;;;;;;5069423;28;20029;-84
2024/01/26 07:59:12;;;;;;;19.70;11.10;;;;;;;;;;5066464;28;20101;-83
2024/01/26 08:01:37;;;;;;;16.60;10.03;;;;;;;;;;5071266;28;20070;-84
2024/01/26 08:04:02;;;;;;;19.40;10.80;;;;;;;;;;5067312;28;20384;-84
2024/01/26 08:06:27;;;;;;;18.53;11.43;;;;;;;;;;5070282;28;20024;-87
2024/01/26 08:08:53;;;;;;;19.80;10.27;;;;;;;;;;5068803;28;20289;-85
2024/01/26 08:11:19;;;;;;;17.97;9.63;;;;;;;;;;5070187;28;20077;-86
2024/01/26 08:13:44;;;;;;;17.47;9.80;;;;;;;;;;5066002;28;20105;-86
2024/01/26 08:16:13;;;;;;;18.43;9.67;;;;;;;;;;5064429;28;20499;-84
2024/01/26 08:18:38;;;;;;;15.70;10.32;;;;;;;;;;5066434;28;20173;-84
2024/01/26 08:21:04;;;;;;;23.73;10.20;;;;;;;;;;5051079;28;20712;-84
2024/01/26 08:23:29;;;;;;;15.63;9.70;;;;;;;;;;5048374;28;20036;-84
2024/01/26 08:25:54;;;;;;;16.00;9.57;;;;;;;;;;5060673;28;20535;-83
2024/01/26 08:28:19;;;;;;;15.30;8.83;;;;;;;;;;5063723;28;20023;-84
2024/01/26 08:30:44;;;;;;;16.80;8.83;;;;;;;;;;5063462;28;20476;-84
2024/01/26 08:33:09;;;;;;;15.48;9.00;;;;;;;;;;5069284;28;20015;-85
2024/01/26 08:35:35;;;;;;;16.03;9.60;;;;;;;;;;5051132;28;20031;-85
2024/01/26 08:38:00;;;;;;;16.03;8.13;;;;;;;;;;5057323;28;20087;-85
2024/01/26 08:40:25;;;;;;;14.77;7.90;;;;;;;;;;5055225;28;20032;-84
2024/01/26 08:42:51;;;;;;;16.27;8.80;;;;;;;;;;5069358;28;20095;-84
2024/01/26 08:45:16;;;;;;;12.63;8.17;;;;;;;;;;5069371;28;20514;-85
2024/01/26 08:47:42;;;;;;;14.55;7.95;;;;;;;;;;5068545;28;20076;-85
2024/01/26 08:50:08;;;;;;;10.80;7.30;;;;;;;;;;5064129;28;20047;-85
2024/01/26 08:52:33;;;;;;;10.20;7.47;;;;;;;;;;5059474;28;20021;-86
2024/01/26 08:54:58;;;;;;;11.93;6.77;;;;;;;;;;5059699;28;20079;-85
2024/01/26 08:57:23;;;;;;;10.90;7.67;;;;;;;;;;5071453;28;20023;-86
2024/01/26 08:59:48;;;;;;;10.57;7.80;;;;;;;;;;5068083;28;20412;-86
2024/01/26 09:02:14;;;;;;;11.93;8.00;;;;;;;;;;5071468;28;20064;-85
2024/01/26 09:04:39;;;;;;;11.37;8.50;;;;;;;;;;5074088;28;20136;-85
2024/01/26 09:07:04;;;;;;;12.10;8.37;;;;;;;;;;5071144;28;20020;-86
2024/01/26 09:09:30;;;;;;;12.25;8.15;;;;;;;;;;5073153;28;20065;-85
2024/01/26 09:11:56;;;;;;;13.32;9.02;;;;;;;;;;5068012;28;20028;-85
2024/01/26 09:14:21;;;;;;;14.70;8.70;;;;;;;;;;5071525;28;20494;-85
2024/01/26 09:16:52;;;;;;;16.53;9.60;;;;;;;;;;5054563;28;20020;-85
2024/01/26 09:19:18;;;;;;;15.85;9.48;;;;;;;;;;5072707;28;20024;-85
2024/01/26 09:21:43;;;;;;;13.93;9.53;;;;;;;;;;5070382;28;20028;-84
2024/01/26 09:24:09;;;;;;;15.23;8.97;;;;;;;;;;5072639;28;20019;-84
2024/01/26 09:26:34;;;;;;;12.77;7.03;;;;;;;;;;5072568;28;20028;-84
2024/01/26 09:29:00;;;;;;;16.40;6.00;;;;;;;;;;5072718;28;20456;-86
2024/01/26 09:31:25;;;;;;;10.90;5.13;;;;;;;;;;5071956;28;20012;-85
2024/01/26 09:33:50;;;;;;;9.50;4.10;;;;;;;;;;5071274;28;20118;-84
2024/01/26 09:36:15;;;;;;;11.87;3.40;;;;;;;;;;5072416;28;20021;-84
2024/01/26 09:38:41;;;;;;;9.73;3.10;;;;;;;;;;5063366;28;20033;-83
2024/01/26 09:41:06;;;;;;;7.00;2.78;;;;;;;;;;5069688;28;20017;-84
2024/01/26 09:43:31;;;;;;;10.63;3.10;;;;;;;;;;5072687;28;20519;-84
2024/01/26 09:45:56;;;;;;;12.57;2.77;;;;;;;;;;5071575;28;20660;-84
2024/01/26 09:48:22;;;;;;;13.70;2.70;;;;;;;;;;5072117;28;20051;-84
2024/01/26 09:50:53;;;;;;;12.70;2.40;;;;;;;;;;5071749;28;20356;-84
2024/01/26 09:53:18;;;;;;;12.30;2.47;;;;;;;;;;5054569;28;20021;-85
2024/01/26 09:55:45;;;;;;;6.17;1.40;;;;;;;;;;5072147;28;20016;-84
2024/01/26 09:58:11;;;;;;;10.18;1.55;;;;;;;;;;5071648;28;20115;-84
2024/01/26 10:00:36;;;;;;;5.47;1.03;;;;;;;;;;5070149;28;20119;-84
2024/01/26 10:03:01;;;;;;;6.77;1.10;;;;;;;;;;5072592;28;20476;-84
2024/01/26 10:05:26;;;;;;;6.83;1.00;;;;;;;;;;5053811;28;20052;-84
2024/01/26 10:07:52;;;;;;;5.90;1.00;;;;;;;;;;5044680;28;20021;-84
2024/01/26 10:10:17;;;;;;;8.50;1.30;;;;;;;;;;5051575;28;20442;-85
2024/01/26 10:12:42;;;;;;;10.43;1.67;;;;;;;;;;5052147;28;20035;-84
2024/01/26 10:15:08;;;;;;;11.27;1.90;;;;;;;;;;5050797;28;20021;-84
2024/01/26 10:17:34;;;;;;;10.27;1.80;;;;;;;;;;5061484;28;20353;-84
2024/01/26 10:20:07;;;;;;;9.90;1.20;;;;;;;;;;5071277;28;20115;-84
2024/01/26 10:22:32;;;;;;;10.63;1.40;;;;;;;;;;5055031;28;20029;-83
2024/01/26 10:24:58;;;;;;;7.43;1.37;;;;;;;;;;5073829;28;20274;-85
2024/01/26 10:27:23;;;;;;;13.43;1.83;;;;;;;;;;5053234;28;20109;-85
2024/01/26 10:29:48;;;;;;;14.23;1.57;;;;;;;;;;5071531;28;20028;-86
2024/01/26 10:32:13;;;;;;;13.97;1.43;;;;;;;;;;5070689;28;20096;-83
2024/01/26 10:34:39;;;;;;;13.10;1.57;;;;;;;;;;5054547;28;20025;-87
2024/01/26 10:39:31;;;;;;;11.00;1.70;;;;;;;;;;5356352;22;20052;-85
2024/01/26 10:42:04;;;;;;;24.00;2.60;;;;;;;;;;5091338;28;20028;-86
2024/01/26 10:44:29;;;;;;;25.10;2.30;;;;;;;;;;5090359;28;20114;-85
2024/01/26 10:46:56;;;;;;;14.53;1.40;;;;;;;;;;5072773;28;20102;-86
2024/01/26 10:49:22;;;;;;;15.55;1.67;;;;;;;;;;5091666;28;20441;-85
2024/01/26 10:51:48;;;;;;;18.73;2.17;;;;;;;;;;5083948;28;20055;-85
2024/01/26 10:54:13;;;;;;;18.55;2.38;;;;;;;;;;5076381;28;20139;-87
2024/01/26 10:56:39;;;;;;;11.00;1.77;;;;;;;;;;5091307;28;20061;-86
2024/01/26 10:59:05;;;;;;;14.60;1.47;;;;;;;;;;5085732;28;20115;-85
2024/01/26 11:01:30;;;;;;;20.92;2.10;;;;;;;;;;5088956;28;20179;-85
2024/01/26 11:03:58;;;;;;;12.73;1.60;;;;;;;;;;5083821;28;20028;-85
2024/01/26 11:06:26;;;;;;;10.60;1.42;;;;;;;;;;5084542;28;20016;-86
2024/01/26 11:08:53;;;;;;;10.05;1.42;;;;;;;;;;5088984;28;20028;-86
2024/01/26 11:11:20;;;;;;;13.23;1.50;;;;;;;;;;5078347;28;20043;-86
2024/01/26 11:13:50;;;;;;;17.38;2.10;;;;;;;;;;5072546;28;20068;-85
2024/01/26 11:16:15;;;;;;;11.93;1.90;;;;;;;;;;5091442;28;20348;-86
2024/01/26 11:18:41;;;;;;;13.73;1.83;;;;;;;;;;5090495;28;20053;-86
2024/01/26 11:21:06;;;;;;;10.03;1.27;;;;;;;;;;5089192;28;20026;-86
2024/01/26 11:23:41;;;;;;;7.83;0.90;;;;;;;;;;5075974;28;20384;-88
2024/01/26 11:26:14;;;;;;;5.82;0.73;;;;;;;;;;5093095;28;20028;-86
2024/01/26 11:28:39;;;;;;;4.75;1.42;;;;;;;;;;5088829;28;20031;-87
2024/01/26 11:31:05;;;;;;;8.77;1.37;;;;;;;;;;5087354;28;20023;-86
2024/01/26 11:33:37;;;;;;;7.40;1.07;;;;;;;;;;5072472;28;20012;-86
2024/01/26 11:36:04;;;;;;;9.95;1.60;;;;;;;;;;5070368;28;20134;-86
2024/01/26 11:38:29;;;;;;;8.40;1.20;;;;;;;;;;5080724;28;20052;-86
2024/01/26 11:40:55;;;;;;;7.47;1.20;;;;;;;;;;5092541;28;20052;-87
2024/01/26 11:43:24;;;;;;;6.70;0.90;;;;;;;;;;5098509;28;20024;-87
2024/01/26 11:45:50;;;;;;;9.30;1.50;;;;;;;;;;5080802;28;20077;-88
2024/01/26 11:48:15;;;;;;;7.03;1.00;;;;;;;;;;5091314;28;20099;-88
2024/01/26 11:50:42;;;;;;;6.37;1.13;;;;;;;;;;5091427;28;20076;-88
2024/01/26 11:53:08;;;;;;;9.63;1.13;;;;;;;;;;5072994;28;20024;-88
2024/01/26 11:55:33;;;;;;;6.43;1.10;;;;;;;;;;5092328;28;20022;-88
2024/01/26 11:57:58;;;;;;;7.07;1.20;;;;;;;;;;5074575;28;20713;-89
2024/01/26 12:00:24;;;;;;;11.70;1.20;;;;;;;;;;5109282;28;20016;-88
2024/01/26 12:02:49;;;;;;;5.40;1.17;;;;;;;;;;5095344;28;20020;-87
2024/01/26 12:05:18;;;;;;;7.07;1.10;;;;;;;;;;5071615;28;20027;-88
2024/01/26 12:07:43;;;;;;;7.47;1.30;;;;;;;;;;5090639;28;20387;-87
2024/01/26 12:10:09;;;;;;;5.57;1.00;;;;;;;;;;5093659;28;20031;-88
2024/01/26 12:12:34;;;;;;;5.72;0.95;;;;;;;;;;5093940;28;20020;-87
2024/01/26 12:15:01;;;;;;;8.47;1.40;;;;;;;;;;5085598;28;20383;-88
2024/01/26 12:17:27;;;;;;;10.23;1.70;;;;;;;;;;5075353;28;20023;-88
2024/01/26 12:19:52;;;;;;;9.00;1.10;;;;;;;;;;5093432;28;20036;-89
2024/01/26 12:22:18;;;;;;;8.43;1.40;;;;;;;;;;5071913;28;20012;-88
2024/01/26 12:24:43;;;;;;;10.87;1.10;;;;;;;;;;5090441;28;20020;-89
2024/01/26 12:27:08;;;;;;;16.53;1.50;;;;;;;;;;5092052;28;20443;-89
2024/01/26 12:29:34;;;;;;;10.83;1.60;;;;;;;;;;5091782;28;20031;-90
2024/01/26 12:32:07;;;;;;;7.40;1.10;;;;;;;;;;5072872;28;20032;-89
2024/01/26 12:34:35;;;;;;;7.90;1.38;;;;;;;;;;5090952;28;20028;-89
2024/01/26 12:37:01;;;;;;;11.43;1.30;;;;;;;;;;5073984;28;20024;-89
2024/01/26 12:39:28;;;;;;;11.32;1.55;;;;;;;;;;5073461;28;20059;-90
2024/01/26 12:41:53;;;;;;;10.07;1.60;;;;;;;;;;5091217;28;20135;-89
2024/01/26 12:44:19;;;;;;;11.77;1.40;;;;;;;;;;5091115;28;20353;-91
2024/01/26 12:46:45;;;;;;;9.50;1.50;;;;;;;;;;5091750;28;20016;-89
2024/01/26 12:49:11;;;;;;;10.27;1.20;;;;;;;;;;5094720;28;20027;-90
2024/01/26 12:51:36;;;;;;;10.50;1.20;;;;;;;;;;5072378;28;20020;-90
2024/01/26 12:54:01;;;;;;;10.20;1.30;;;;;;;;;;5089849;28;20130;-89
2024/01/26 12:56:27;;;;;;;6.90;1.20;;;;;;;;;;5095776;28;20024;-90
2024/01/26 12:58:52;;;;;;;10.13;1.43;;;;;;;;;;5110978;28;20039;-91
2024/01/26 13:01:22;;;;;;;13.60;1.67;;;;;;;;;;5095353;28;20174;-90
2024/01/26 13:03:47;;;;;;;11.52;1.67;;;;;;;;;;5103806;28;20092;-91
2024/01/26 13:06:12;;;;;;;12.02;1.40;;;;;;;;;;5101631;28;20016;-91
2024/01/26 13:08:37;;;;;;;13.60;1.60;;;;;;;;;;5094653;28;20600;-89
2024/01/26 13:11:05;;;;;;;13.47;1.87;;;;;;;;;;5087393;28;20036;-91
2024/01/26 13:13:30;;;;;;;13.77;1.57;;;;;;;;;;5092391;28;20018;-89
2024/01/26 13:15:55;;;;;;;12.33;1.60;;;;;;;;;;5094579;28;20700;-91
2024/01/26 13:18:20;;;;;;;9.27;1.20;;;;;;;;;;5081078;28;20032;-92
2024/01/26 13:20:46;;;;;;;7.80;2.07;;;;;;;;;;5093581;28;20054;-92
2024/01/26 13:23:11;;;;;;;12.20;1.30;;;;;;;;;;5096186;28;20015;-93
2024/01/26 13:25:36;;;;;;;16.80;2.00;;;;;;;;;;5091763;28;20402;-93
2024/01/26 13:28:01;;;;;;;11.37;1.80;;;;;;;;;;5092882;28;20130;-92
2024/01/26 13:30:26;;;;;;;11.80;1.60;;;;;;;;;;5089158;28;20016;-92
2024/01/26 13:32:52;;;;;;;11.57;1.50;;;;;;;;;;5085573;28;20024;-93
2024/01/26 13:35:17;;;;;;;12.23;1.60;;;;;;;;;;5094180;28;20020;-92
2024/01/26 13:37:42;;;;;;;8.17;1.10;;;;;;;;;;5090584;28;20482;-92
2024/01/26 13:40:07;;;;;;;8.37;1.37;;;;;;;;;;5089385;28;20198;-91
2024/01/26 13:42:33;;;;;;;9.68;1.38;;;;;;;;;;5090333;28;20104;-92
2024/01/26 13:44:59;;;;;;;5.80;1.07;;;;;;;;;;5091821;28;20046;-91
2024/01/26 13:47:24;;;;;;;12.63;1.90;;;;;;;;;;5095314;28;20017;-91
2024/01/26 13:49:54;;;;;;;8.70;1.50;;;;;;;;;;5092578;28;20038;-90
2024/01/26 13:52:19;;;;;;;10.17;1.30;;;;;;;;;;5096013;28;20506;-90
2024/01/26 13:54:44;;;;;;;13.07;1.53;;;;;;;;;;5097661;28;20285;-91
2024/01/26 13:57:09;;;;;;;7.17;1.43;;;;;;;;;;5100374;28;20111;-90
2024/01/26 13:59:35;;;;;;;6.63;1.37;;;;;;;;;;5095858;28;20456;-91
2024/01/26 14:02:00;;;;;;;12.30;1.53;;;;;;;;;;5092987;28;20023;-89
2024/01/26 14:04:25;;;;;;;11.70;1.30;;;;;;;;;;5082512;28;20020;-91
2024/01/26 14:06:53;;;;;;;16.43;1.50;;;;;;;;;;5104943;28;20028;-92
2024/01/26 14:09:19;;;;;;;11.43;1.42;;;;;;;;;;5083358;28;20428;-91
2024/01/26 14:11:45;;;;;;;8.35;1.35;;;;;;;;;;5096611;28;20012;-91
2024/01/26 14:14:10;;;;;;;12.93;1.37;;;;;;;;;;5099676;28;20027;-92
2024/01/26 14:16:36;;;;;;;16.05;1.70;;;;;;;;;;5107252;28;20068;-92
2024/01/26 14:19:01;;;;;;;10.70;1.70;;;;;;;;;;5086517;28;20039;-91
2024/01/26 14:21:27;;;;;;;14.77;1.73;;;;;;;;;;5099069;28;20017;-91
2024/01/26 14:23:52;;;;;;;10.23;1.30;;;;;;;;;;5110647;28;20054;-91